Holbrook, Arizona
Current Conditions -  °F | °C
As of 1:56 AM on Tuesday 21 Oct 2014 (Local Time) from KINW Reporting Station
Clear Clear  
Wind Chill:   Ceiling: Unl
Heat Index:   Visibility: 10mi
Dew Point:   Wind: 7mph
Humidity: 77%   Direction: 100°E
Pressure: 30.09"   Gusts: NA
Location:  34.9°N, 110.16°W
Report Text: KINW 210856Z AUTO 10006KT 10SM CLR 09/05 A3009 RMK AO2 SLP143 T00890050 51005
Loading
Personal Weather Stations






























Interactive Weather Map
Tropical Storm Tracking
New forecast layout! Learn more

10-Day Weather Forecast

Advertisements
Track Severe Weather on mobile